sensor_id;sensor_type;location;lat;lon;timestamp;pressure;altitude;pressure_sealevel;temperature;humidity
13080;BME280;6606;49.154;9.280;2023-05-02T00:01:05;99711.59;;;9.65;100.00
13080;BME280;6606;49.154;9.280;2023-05-02T00:03:47;99716.97;;;9.64;100.00
13080;BME280;6606;49.154;9.280;2023-05-02T00:06:29;99713.59;;;9.60;100.00
13080;BME280;6606;49.154;9.280;2023-05-02T00:09:11;99715.72;;;9.52;100.00
13080;BME280;6606;49.154;9.280;2023-05-02T00:11:53;99705.44;;;9.46;100.00
13080;BME280;6606;49.154;9.280;2023-05-02T00:14:36;99712.56;;;9.44;100.00
13080;BME280;6606;49.154;9.280;2023-05-02T00:17:18;99715.31;;;9.42;100.00
13080;BME280;6606;49.154;9.280;2023-05-02T00:20:00;99716.31;;;9.40;100.00
13080;BME280;6606;49.154;9.280;2023-05-02T00:22:43;99711.16;;;9.37;100.00
13080;BME280;6606;49.154;9.280;2023-05-02T00:25:25;99714.84;;;9.33;100.00
13080;BME280;6606;49.154;9.280;2023-05-02T00:28:07;99715.91;;;9.29;100.00
13080;BME280;6606;49.154;9.280;2023-05-02T00:30:50;99712.25;;;9.31;100.00
13080;BME280;6606;49.154;9.280;2023-05-02T00:33:32;99715.53;;;9.17;100.00
13080;BME280;6606;49.154;9.280;2023-05-02T00:36:14;99711.69;;;9.24;100.00
13080;BME280;6606;49.154;9.280;2023-05-02T00:38:58;99709.09;;;9.23;100.00
13080;BME280;6606;49.154;9.280;2023-05-02T00:41:39;99710.84;;;9.24;100.00
13080;BME280;6606;49.154;9.280;2023-05-02T00:44:21;99708.25;;;9.22;100.00
13080;BME280;6606;49.154;9.280;2023-05-02T00:47:04;99707.41;;;9.22;100.00
13080;BME280;6606;49.154;9.280;2023-05-02T00:49:46;99710.00;;;9.23;100.00
13080;BME280;6606;49.154;9.280;2023-05-02T00:52:28;99717.97;;;9.22;100.00
13080;BME280;6606;49.154;9.280;2023-05-02T00:55:10;99712.75;;;9.20;100.00
13080;BME280;6606;49.154;9.280;2023-05-02T00:57:52;99717.38;;;9.15;100.00
13080;BME280;6606;49.154;9.280;2023-05-02T01:00:43;99717.38;;;9.15;100.00
13080;BME280;6606;49.154;9.280;2023-05-02T01:03:35;99720.81;;;9.17;100.00
13080;BME280;6606;49.154;9.280;2023-05-02T01:06:29;99718.31;;;9.14;100.00
13080;BME280;6606;49.154;9.280;2023-05-02T01:09:21;99718.59;;;9.08;100.00
13080;BME280;6606;49.154;9.280;2023-05-02T01:12:15;99713.47;;;9.03;100.00
13080;BME280;6606;49.154;9.280;2023-05-02T01:15:01;99713.47;;;9.03;100.00
13080;BME280;6606;49.154;9.280;2023-05-02T01:17:47;99716.19;;;9.02;100.00
13080;BME280;6606;49.154;9.280;2023-05-02T01:20:35;99723.34;;;9.00;100.00
13080;BME280;6606;49.154;9.280;2023-05-02T01:23:22;99710.19;;;8.98;100.00
13080;BME280;6606;49.154;9.280;2023-05-02T01:26:15;99722.81;;;8.92;100.00
13080;BME280;6606;49.154;9.280;2023-05-02T01:29:00;99726.91;;;8.99;100.00
13080;BME280;6606;49.154;9.280;2023-05-02T01:31:47;99717.19;;;8.99;100.00
13080;BME280;6606;49.154;9.280;2023-05-02T01:34:31;99728.50;;;9.03;100.00
13080;BME280;6606;49.154;9.280;2023-05-02T01:37:14;99730.06;;;9.07;100.00
13080;BME280;6606;49.154;9.280;2023-05-02T01:39:59;99729.94;;;9.10;100.00
13080;BME280;6606;49.154;9.280;2023-05-02T01:42:42;99730.72;;;9.12;100.00
13080;BME280;6606;49.154;9.280;2023-05-02T01:45:28;99739.97;;;9.22;100.00
13080;BME280;6606;49.154;9.280;2023-05-02T01:48:11;99737.16;;;9.27;100.00
13080;BME280;6606;49.154;9.280;2023-05-02T01:50:55;99744.88;;;9.32;100.00
13080;BME280;6606;49.154;9.280;2023-05-02T01:53:38;99744.88;;;9.32;100.00
13080;BME280;6606;49.154;9.280;2023-05-02T01:56:22;99757.84;;;9.38;100.00
13080;BME280;6606;49.154;9.280;2023-05-02T01:59:07;99756.84;;;9.40;100.00
13080;BME280;6606;49.154;9.280;2023-05-02T02:01:52;99755.03;;;9.41;100.00
13080;BME280;6606;49.154;9.280;2023-05-02T02:04:36;99764.44;;;9.28;100.00
13080;BME280;6606;49.154;9.280;2023-05-02T02:07:20;99757.44;;;9.27;100.00
13080;BME280;6606;49.154;9.280;2023-05-02T02:10:01;99760.75;;;9.32;100.00
13080;BME280;6606;49.154;9.280;2023-05-02T02:12:48;99758.16;;;9.30;100.00
13080;BME280;6606;49.154;9.280;2023-05-02T02:15:34;99752.94;;;9.29;100.00
13080;BME280;6606;49.154;9.280;2023-05-02T02:18:20;99759.00;;;9.31;100.00
13080;BME280;6606;49.154;9.280;2023-05-02T02:21:06;99769.78;;;9.26;100.00
13080;BME280;6606;49.154;9.280;2023-05-02T02:23:50;99778.28;;;9.14;100.00
13080;BME280;6606;49.154;9.280;2023-05-02T02:26:35;99779.84;;;9.18;100.00
13080;BME280;6606;49.154;9.280;2023-05-02T02:29:20;99786.38;;;9.09;100.00
13080;BME280;6606;49.154;9.280;2023-05-02T02:32:03;99791.94;;;9.03;100.00
13080;BME280;6606;49.154;9.280;2023-05-02T02:34:46;99786.38;;;9.09;100.00
13080;BME280;6606;49.154;9.280;2023-05-02T02:37:30;99792.78;;;9.03;100.00
13080;BME280;6606;49.154;9.280;2023-05-02T02:40:18;99792.53;;;9.10;100.00
13080;BME280;6606;49.154;9.280;2023-05-02T02:43:07;99802.38;;;9.06;100.00
13080;BME280;6606;49.154;9.280;2023-05-02T02:45:56;99800.47;;;9.10;100.00
13080;BME280;6606;49.154;9.280;2023-05-02T02:48:49;99810.13;;;9.11;100.00
13080;BME280;6606;49.154;9.280;2023-05-02T02:51:42;99809.25;;;9.10;100.00
13080;BME280;6606;49.154;9.280;2023-05-02T02:54:30;99812.56;;;9.15;100.00
13080;BME280;6606;49.154;9.280;2023-05-02T02:57:16;99811.34;;;9.24;100.00
13080;BME280;6606;49.154;9.280;2023-05-02T03:00:04;99810.88;;;9.35;100.00
13080;BME280;6606;49.154;9.280;2023-05-02T03:02:48;99814.94;;;9.42;100.00
13080;BME280;6606;49.154;9.280;2023-05-02T03:05:32;99819.81;;;9.53;100.00
13080;BME280;6606;49.154;9.280;2023-05-02T03:08:15;99820.38;;;9.59;100.00
13080;BME280;6606;49.154;9.280;2023-05-02T03:10:57;99823.81;;;9.61;100.00
13080;BME280;6606;49.154;9.280;2023-05-02T03:13:39;99822.41;;;9.73;100.00
13080;BME280;6606;49.154;9.280;2023-05-02T03:16:33;99821.06;;;9.83;100.00
13080;BME280;6606;49.154;9.280;2023-05-02T03:19:16;99829.38;;;9.95;100.00
13080;BME280;6606;49.154;9.280;2023-05-02T03:21:58;99831.69;;;10.02;100.00
13080;BME280;6606;49.154;9.280;2023-05-02T03:24:41;99836.59;;;10.11;100.00
13080;BME280;6606;49.154;9.280;2023-05-02T03:27:25;99839.03;;;10.16;100.00
13080;BME280;6606;49.154;9.280;2023-05-02T03:30:08;99839.75;;;10.20;100.00
13080;BME280;6606;49.154;9.280;2023-05-02T03:32:50;99850.91;;;10.26;100.00
13080;BME280;6606;49.154;9.280;2023-05-02T03:35:32;99838.81;;;10.40;100.00
13080;BME280;6606;49.154;9.280;2023-05-02T03:38:15;99838.47;;;10.47;100.00
13080;BME280;6606;49.154;9.280;2023-05-02T03:41:00;99841.63;;;10.55;100.00
13080;BME280;6606;49.154;9.280;2023-05-02T03:43:43;99843.69;;;10.68;100.00
13080;BME280;6606;49.154;9.280;2023-05-02T03:46:26;99854.78;;;10.76;100.00
13080;BME280;6606;49.154;9.280;2023-05-02T03:49:09;99859.94;;;10.79;100.00
13080;BME280;6606;49.154;9.280;2023-05-02T03:51:54;99859.66;;;10.85;100.00
13080;BME280;6606;49.154;9.280;2023-05-02T03:54:41;99866.22;;;10.95;100.00
13080;BME280;6606;49.154;9.280;2023-05-02T03:57:24;99873.16;;;10.98;100.00
13080;BME280;6606;49.154;9.280;2023-05-02T04:00:07;99874.09;;;10.97;100.00
13080;BME280;6606;49.154;9.280;2023-05-02T04:02:52;99873.25;;;10.96;100.00
13080;BME280;6606;49.154;9.280;2023-05-02T04:05:37;99876.38;;;11.05;100.00
13080;BME280;6606;49.154;9.280;2023-05-02T04:08:19;99879.53;;;11.13;100.00
13080;BME280;6606;49.154;9.280;2023-05-02T04:11:01;99871.88;;;11.24;100.00
13080;BME280;6606;49.154;9.280;2023-05-02T04:13:45;99877.81;;;11.29;100.00
13080;BME280;6606;49.154;9.280;2023-05-02T04:16:28;99875.00;;;11.32;100.00
13080;BME280;6606;49.154;9.280;2023-05-02T04:19:10;99876.75;;;11.33;100.00
13080;BME280;6606;49.154;9.280;2023-05-02T04:21:53;99888.09;;;11.18;100.00
13080;BME280;6606;49.154;9.280;2023-05-02T04:24:34;99879.34;;;11.16;100.00
13080;BME280;6606;49.154;9.280;2023-05-02T04:27:16;99874.53;;;11.24;100.00
13080;BME280;6606;49.154;9.280;2023-05-02T04:30:04;99877.38;;;11.38;100.00
13080;BME280;6606;49.154;9.280;2023-05-02T04:33:09;99876.09;;;11.45;100.00
13080;BME280;6606;49.154;9.280;2023-05-02T04:36:37;99880.03;;;11.38;100.00
13080;BME280;6606;49.154;9.280;2023-05-02T04:39:22;99892.66;;;11.51;100.00
13080;BME280;6606;49.154;9.280;2023-05-02T04:42:16;99900.34;;;11.57;100.00
13080;BME280;6606;49.154;9.280;2023-05-02T04:45:11;99909.38;;;11.53;100.00
13080;BME280;6606;49.154;9.280;2023-05-02T04:47:53;99915.63;;;11.52;100.00
13080;BME280;6606;49.154;9.280;2023-05-02T04:50:35;99928.13;;;11.50;100.00
13080;BME280;6606;49.154;9.280;2023-05-02T04:53:17;99927.31;;;11.48;100.00
13080;BME280;6606;49.154;9.280;2023-05-02T04:55:58;99939.81;;;11.45;100.00
13080;BME280;6606;49.154;9.280;2023-05-02T04:58:41;99946.53;;;11.53;100.00
13080;BME280;6606;49.154;9.280;2023-05-02T05:01:25;99946.22;;;11.59;100.00
13080;BME280;6606;49.154;9.280;2023-05-02T05:04:08;99938.81;;;11.65;100.00
13080;BME280;6606;49.154;9.280;2023-05-02T05:06:50;99952.50;;;11.75;100.00
13080;BME280;6606;49.154;9.280;2023-05-02T05:09:33;99959.34;;;11.79;100.00
13080;BME280;6606;49.154;9.280;2023-05-02T05:12:15;99963.50;;;11.85;100.00
13080;BME280;6606;49.154;9.280;2023-05-02T05:14:58;99958.19;;;11.85;100.00
13080;BME280;6606;49.154;9.280;2023-05-02T05:17:43;99969.72;;;12.03;100.00
13080;BME280;6606;49.154;9.280;2023-05-02T05:20:24;99970.66;;;12.02;100.00
13080;BME280;6606;49.154;9.280;2023-05-02T05:23:12;99971.91;;;12.12;100.00
13080;BME280;6606;49.154;9.280;2023-05-02T05:25:54;99970.50;;;12.05;100.00
13080;BME280;6606;49.154;9.280;2023-05-02T05:28:37;99970.94;;;12.13;100.00
13080;BME280;6606;49.154;9.280;2023-05-02T05:31:19;99975.19;;;12.17;100.00
13080;BME280;6606;49.154;9.280;2023-05-02T05:34:08;99985.16;;;12.29;100.00
13080;BME280;6606;49.154;9.280;2023-05-02T05:36:49;99983.44;;;12.28;100.00
13080;BME280;6606;49.154;9.280;2023-05-02T05:39:32;99994.06;;;12.28;100.00
13080;BME280;6606;49.154;9.280;2023-05-02T05:42:15;99993.56;;;12.38;100.00
13080;BME280;6606;49.154;9.280;2023-05-02T05:44:59;100007.53;;;12.25;100.00
13080;BME280;6606;49.154;9.280;2023-05-02T05:47:42;100002.06;;;12.28;100.00
13080;BME280;6606;49.154;9.280;2023-05-02T05:50:25;100011.09;;;12.42;100.00
13080;BME280;6606;49.154;9.280;2023-05-02T05:53:07;100015.56;;;12.74;100.00
13080;BME280;6606;49.154;9.280;2023-05-02T05:55:50;100010.91;;;12.62;100.00
13080;BME280;6606;49.154;9.280;2023-05-02T05:58:34;100014.03;;;12.53;100.00
13080;BME280;6606;49.154;9.280;2023-05-02T06:01:16;100012.91;;;12.74;100.00
13080;BME280;6606;49.154;9.280;2023-05-02T06:03:59;100017.41;;;12.90;100.00
13080;BME280;6606;49.154;9.280;2023-05-02T06:06:42;100010.41;;;13.20;100.00
13080;BME280;6606;49.154;9.280;2023-05-02T06:09:24;100014.84;;;13.20;100.00
13080;BME280;6606;49.154;9.280;2023-05-02T06:12:06;100005.59;;;13.43;100.00
13080;BME280;6606;49.154;9.280;2023-05-02T06:15:02;100020.91;;;13.39;100.00
13080;BME280;6606;49.154;9.280;2023-05-02T06:25:51;100036.88;;;13.39;100.00
13080;BME280;6606;49.154;9.280;2023-05-02T06:28:49;100037.59;;;13.73;100.00
13080;BME280;6606;49.154;9.280;2023-05-02T06:31:34;100038.88;;;13.98;100.00
13080;BME280;6606;49.154;9.280;2023-05-02T06:34:15;100032.69;;;13.97;100.00
13080;BME280;6606;49.154;9.280;2023-05-02T06:37:06;100042.88;;;14.35;100.00
13080;BME280;6606;49.154;9.280;2023-05-02T06:39:51;100044.69;;;14.49;100.00
13080;BME280;6606;49.154;9.280;2023-05-02T06:42:33;100043.78;;;14.20;100.00
13080;BME280;6606;49.154;9.280;2023-05-02T06:45:14;100058.25;;;14.16;100.00
13080;BME280;6606;49.154;9.280;2023-05-02T06:47:56;100057.72;;;14.39;100.00
13080;BME280;6606;49.154;9.280;2023-05-02T06:50:38;100068.63;;;14.50;100.00
13080;BME280;6606;49.154;9.280;2023-05-02T06:53:21;100070.75;;;14.60;100.00
13080;BME280;6606;49.154;9.280;2023-05-02T06:56:04;100074.66;;;14.54;100.00
13080;BME280;6606;49.154;9.280;2023-05-02T06:58:46;100076.38;;;14.55;100.00
13080;BME280;6606;49.154;9.280;2023-05-02T07:01:27;100073.47;;;14.74;100.00
13080;BME280;6606;49.154;9.280;2023-05-02T07:04:09;100082.63;;;14.99;100.00
13080;BME280;6606;49.154;9.280;2023-05-02T07:06:51;100082.59;;;14.84;100.00
13080;BME280;6606;49.154;9.280;2023-05-02T07:09:34;100090.81;;;15.10;100.00
13080;BME280;6606;49.154;9.280;2023-05-02T07:12:16;100091.38;;;15.29;100.00
13080;BME280;6606;49.154;9.280;2023-05-02T07:14:58;100087.00;;;15.84;100.00
13080;BME280;6606;49.154;9.280;2023-05-02T07:17:39;100100.00;;;15.76;100.00
13080;BME280;6606;49.154;9.280;2023-05-02T07:20:22;100100.22;;;16.00;100.00
13080;BME280;6606;49.154;9.280;2023-05-02T07:23:03;100098.59;;;15.70;100.00
13080;BME280;6606;49.154;9.280;2023-05-02T07:25:47;100108.16;;;16.41;100.00
13080;BME280;6606;49.154;9.280;2023-05-02T07:28:29;100100.19;;;17.80;100.00
13080;BME280;6606;49.154;9.280;2023-05-02T07:31:11;100101.38;;;18.95;100.00
13080;BME280;6606;49.154;9.280;2023-05-02T07:33:53;100098.81;;;19.39;100.00
13080;BME280;6606;49.154;9.280;2023-05-02T07:36:34;100105.03;;;19.84;100.00
13080;BME280;6606;49.154;9.280;2023-05-02T07:39:16;100109.59;;;20.48;100.00
13080;BME280;6606;49.154;9.280;2023-05-02T07:41:59;100109.13;;;21.06;100.00
13080;BME280;6606;49.154;9.280;2023-05-02T07:44:43;100105.59;;;20.63;100.00
13080;BME280;6606;49.154;9.280;2023-05-02T07:47:24;100110.41;;;19.95;100.00
13080;BME280;6606;49.154;9.280;2023-05-02T07:50:07;100105.22;;;20.36;100.00
13080;BME280;6606;49.154;9.280;2023-05-02T07:52:49;100112.28;;;19.27;100.00
13080;BME280;6606;49.154;9.280;2023-05-02T07:55:31;100115.38;;;18.17;100.00
13080;BME280;6606;49.154;9.280;2023-05-02T07:58:14;100102.97;;;17.17;100.00
13080;BME280;6606;49.154;9.280;2023-05-02T08:00:56;100102.22;;;17.40;100.00
13080;BME280;6606;49.154;9.280;2023-05-02T08:03:38;100112.81;;;17.54;100.00
13080;BME280;6606;49.154;9.280;2023-05-02T08:06:20;100111.84;;;17.92;100.00
13080;BME280;6606;49.154;9.280;2023-05-02T08:09:02;100111.53;;;17.47;100.00
13080;BME280;6606;49.154;9.280;2023-05-02T08:11:43;100112.47;;;17.96;100.00
13080;BME280;6606;49.154;9.280;2023-05-02T08:14:27;100120.81;;;19.55;100.00
13080;BME280;6606;49.154;9.280;2023-05-02T08:17:09;100120.34;;;19.39;100.00
13080;BME280;6606;49.154;9.280;2023-05-02T08:19:50;100123.75;;;19.86;100.00
13080;BME280;6606;49.154;9.280;2023-05-02T08:22:32;100132.53;;;19.65;100.00
13080;BME280;6606;49.154;9.280;2023-05-02T08:25:14;100131.78;;;18.84;100.00
13080;BME280;6606;49.154;9.280;2023-05-02T08:27:56;100136.06;;;19.66;100.00
13080;BME280;6606;49.154;9.280;2023-05-02T08:30:39;100129.66;;;20.44;100.00
13080;BME280;6606;49.154;9.280;2023-05-02T08:33:20;100136.16;;;20.09;100.00
13080;BME280;6606;49.154;9.280;2023-05-02T08:36:09;100134.13;;;19.79;100.00
13080;BME280;6606;49.154;9.280;2023-05-02T08:38:51;100138.44;;;20.25;100.00
13080;BME280;6606;49.154;9.280;2023-05-02T08:41:33;100144.81;;;19.69;100.00
13080;BME280;6606;49.154;9.280;2023-05-02T08:44:16;100142.31;;;19.10;100.00
13080;BME280;6606;49.154;9.280;2023-05-02T08:46:59;100141.59;;;19.42;100.00
13080;BME280;6606;49.154;9.280;2023-05-02T08:49:42;100138.06;;;19.30;100.00
13080;BME280;6606;49.154;9.280;2023-05-02T08:52:25;100136.34;;;19.85;100.00
13080;BME280;6606;49.154;9.280;2023-05-02T08:55:08;100139.06;;;20.17;100.00
13080;BME280;6606;49.154;9.280;2023-05-02T08:58:08;100145.66;;;19.70;100.00
13080;BME280;6606;49.154;9.280;2023-05-02T09:00:51;100144.88;;;20.34;100.00
13080;BME280;6606;49.154;9.280;2023-05-02T09:03:35;100154.44;;;20.38;100.00
13080;BME280;6606;49.154;9.280;2023-05-02T09:06:18;100157.13;;;19.49;100.00
13080;BME280;6606;49.154;9.280;2023-05-02T09:09:01;100151.13;;;19.23;100.00
13080;BME280;6606;49.154;9.280;2023-05-02T09:11:45;100153.56;;;19.60;100.00
13080;BME280;6606;49.154;9.280;2023-05-02T09:14:27;100157.75;;;20.19;100.00
13080;BME280;6606;49.154;9.280;2023-05-02T09:17:22;100150.88;;;19.26;100.00
13080;BME280;6606;49.154;9.280;2023-05-02T09:20:16;100150.16;;;19.24;100.00
13080;BME280;6606;49.154;9.280;2023-05-02T09:22:58;100153.84;;;19.68;100.00
13080;BME280;6606;49.154;9.280;2023-05-02T09:25:40;100155.47;;;20.14;100.00
13080;BME280;6606;49.154;9.280;2023-05-02T09:28:36;100154.13;;;20.52;98.05
13080;BME280;6606;49.154;9.280;2023-05-02T09:31:20;100150.13;;;21.30;96.58
13080;BME280;6606;49.154;9.280;2023-05-02T09:34:10;100153.88;;;21.39;94.79
13080;BME280;6606;49.154;9.280;2023-05-02T09:36:53;100151.28;;;20.21;96.62
13080;BME280;6606;49.154;9.280;2023-05-02T09:39:34;100147.53;;;20.45;100.00
13080;BME280;6606;49.154;9.280;2023-05-02T09:42:29;100148.28;;;21.31;97.75
13080;BME280;6606;49.154;9.280;2023-05-02T09:45:22;100156.75;;;20.96;91.34
13080;BME280;6606;49.154;9.280;2023-05-02T09:48:04;100147.47;;;21.10;87.76
13080;BME280;6606;49.154;9.280;2023-05-02T09:50:46;100147.00;;;21.04;86.46
13080;BME280;6606;49.154;9.280;2023-05-02T09:53:29;100143.22;;;21.17;86.64
13080;BME280;6606;49.154;9.280;2023-05-02T09:56:11;100148.75;;;21.36;87.97
13080;BME280;6606;49.154;9.280;2023-05-02T09:59:10;100146.75;;;21.69;82.53
13080;BME280;6606;49.154;9.280;2023-05-02T10:01:54;100145.91;;;22.67;78.17
13080;BME280;6606;49.154;9.280;2023-05-02T10:04:37;100148.63;;;23.43;75.64
13080;BME280;6606;49.154;9.280;2023-05-02T10:07:19;100142.06;;;23.46;71.86
13080;BME280;6606;49.154;9.280;2023-05-02T10:10:03;100148.34;;;22.60;71.59
13080;BME280;6606;49.154;9.280;2023-05-02T10:12:46;100150.53;;;20.63;81.73
13080;BME280;6606;49.154;9.280;2023-05-02T10:15:33;100144.56;;;19.72;91.14
13080;BME280;6606;49.154;9.280;2023-05-02T10:18:21;100153.09;;;19.32;100.00
13080;BME280;6606;49.154;9.280;2023-05-02T10:21:09;100151.63;;;19.62;100.00
13080;BME280;6606;49.154;9.280;2023-05-02T10:23:51;100153.84;;;19.80;100.00
13080;BME280;6606;49.154;9.280;2023-05-02T10:26:35;100150.41;;;19.44;100.00
13080;BME280;6606;49.154;9.280;2023-05-02T10:29:17;100150.88;;;19.60;100.00
13080;BME280;6606;49.154;9.280;2023-05-02T10:32:00;100153.97;;;19.67;100.00
13080;BME280;6606;49.154;9.280;2023-05-02T10:34:45;100147.19;;;20.06;100.00
13080;BME280;6606;49.154;9.280;2023-05-02T10:37:28;100146.38;;;19.72;100.00
13080;BME280;6606;49.154;9.280;2023-05-02T10:40:11;100153.41;;;20.07;100.00
13080;BME280;6606;49.154;9.280;2023-05-02T10:42:55;100150.63;;;19.97;99.54
13080;BME280;6606;49.154;9.280;2023-05-02T10:45:38;100137.19;;;20.29;95.02
13080;BME280;6606;49.154;9.280;2023-05-02T10:48:21;100135.28;;;21.15;93.46
13080;BME280;6606;49.154;9.280;2023-05-02T10:51:04;100141.28;;;20.77;87.59
13080;BME280;6606;49.154;9.280;2023-05-02T10:53:46;100128.47;;;20.90;82.67
13080;BME280;6606;49.154;9.280;2023-05-02T10:56:29;100143.03;;;20.02;93.52
13080;BME280;6606;49.154;9.280;2023-05-02T10:59:27;100126.56;;;19.73;96.57
13080;BME280;6606;49.154;9.280;2023-05-02T11:02:47;100138.66;;;19.33;99.00
13080;BME280;6606;49.154;9.280;2023-05-02T11:05:29;100132.81;;;19.40;100.00
13080;BME280;6606;49.154;9.280;2023-05-02T11:08:37;100127.91;;;19.33;99.56
13080;BME280;6606;49.154;9.280;2023-05-02T11:11:37;100131.34;;;19.81;100.00
13080;BME280;6606;49.154;9.280;2023-05-02T11:14:45;100119.50;;;21.11;94.62
13080;BME280;6606;49.154;9.280;2023-05-02T11:17:57;100126.00;;;21.60;72.71
13080;BME280;6606;49.154;9.280;2023-05-02T11:20:40;100123.69;;;21.95;75.69
13080;BME280;6606;49.154;9.280;2023-05-02T11:23:22;100132.03;;;21.21;75.33
13080;BME280;6606;49.154;9.280;2023-05-02T11:26:19;100126.81;;;21.20;76.18
13080;BME280;6606;49.154;9.280;2023-05-02T11:29:02;100137.16;;;20.94;77.76
13080;BME280;6606;49.154;9.280;2023-05-02T11:32:03;100126.59;;;21.12;88.20
13080;BME280;6606;49.154;9.280;2023-05-02T11:34:45;100140.84;;;19.62;93.71
13080;BME280;6606;49.154;9.280;2023-05-02T11:37:27;100142.44;;;18.14;100.00
13080;BME280;6606;49.154;9.280;2023-05-02T11:40:09;100149.88;;;17.73;100.00
13080;BME280;6606;49.154;9.280;2023-05-02T11:42:51;100145.81;;;17.68;100.00
13080;BME280;6606;49.154;9.280;2023-05-02T11:45:34;100147.66;;;17.91;100.00
13080;BME280;6606;49.154;9.280;2023-05-02T11:48:19;100145.06;;;17.66;100.00
13080;BME280;6606;49.154;9.280;2023-05-02T11:51:01;100143.50;;;18.59;100.00
13080;BME280;6606;49.154;9.280;2023-05-02T11:53:44;100152.22;;;18.74;100.00
13080;BME280;6606;49.154;9.280;2023-05-02T11:56:28;100146.47;;;19.03;100.00
13080;BME280;6606;49.154;9.280;2023-05-02T11:59:10;100150.09;;;18.55;100.00
13080;BME280;6606;49.154;9.280;2023-05-02T12:01:52;100155.09;;;18.60;100.00
13080;BME280;6606;49.154;9.280;2023-05-02T12:04:45;100158.31;;;19.23;100.00
13080;BME280;6606;49.154;9.280;2023-05-02T12:07:34;100158.69;;;19.18;100.00
13080;BME280;6606;49.154;9.280;2023-05-02T12:10:15;100157.97;;;19.39;98.29
13080;BME280;6606;49.154;9.280;2023-05-02T12:13:03;100153.63;;;19.71;98.78
13080;BME280;6606;49.154;9.280;2023-05-02T12:15:45;100151.38;;;19.76;94.49
13080;BME280;6606;49.154;9.280;2023-05-02T12:18:28;100154.50;;;20.59;92.92
13080;BME280;6606;49.154;9.280;2023-05-02T12:21:20;100161.88;;;19.91;94.47
13080;BME280;6606;49.154;9.280;2023-05-02T12:24:02;100165.47;;;20.24;91.57
13080;BME280;6606;49.154;9.280;2023-05-02T12:26:44;100169.56;;;19.39;96.49
13080;BME280;6606;49.154;9.280;2023-05-02T12:29:36;100168.75;;;19.84;86.75
13080;BME280;6606;49.154;9.280;2023-05-02T12:32:26;100169.06;;;20.45;86.33
13080;BME280;6606;49.154;9.280;2023-05-02T12:35:19;100163.69;;;21.19;74.07
13080;BME280;6606;49.154;9.280;2023-05-02T12:38:11;100168.66;;;21.45;70.62
13080;BME280;6606;49.154;9.280;2023-05-02T12:40:54;100161.78;;;22.02;67.31
13080;BME280;6606;49.154;9.280;2023-05-02T12:43:45;100156.88;;;21.77;60.56
13080;BME280;6606;49.154;9.280;2023-05-02T12:46:27;100152.66;;;21.53;65.34
13080;BME280;6606;49.154;9.280;2023-05-02T12:49:09;100159.63;;;21.25;57.34
13080;BME280;6606;49.154;9.280;2023-05-02T12:51:52;100169.16;;;20.87;58.85
13080;BME280;6606;49.154;9.280;2023-05-02T12:54:37;100169.69;;;20.81;60.11
13080;BME280;6606;49.154;9.280;2023-05-02T12:57:22;100163.28;;;20.82;59.44
13080;BME280;6606;49.154;9.280;2023-05-02T13:00:06;100157.31;;;20.99;57.93
13080;BME280;6606;49.154;9.280;2023-05-02T13:02:48;100165.88;;;21.04;58.33
13080;BME280;6606;49.154;9.280;2023-05-02T13:05:30;100156.75;;;21.78;57.85
13080;BME280;6606;49.154;9.280;2023-05-02T13:08:12;100164.22;;;22.15;58.18
13080;BME280;6606;49.154;9.280;2023-05-02T13:10:55;100145.66;;;22.51;54.44
13080;BME280;6606;49.154;9.280;2023-05-02T13:13:37;100154.44;;;22.72;55.62
13080;BME280;6606;49.154;9.280;2023-05-02T13:16:18;100153.03;;;22.58;53.90
13080;BME280;6606;49.154;9.280;2023-05-02T13:19:00;100151.03;;;22.70;55.47
13080;BME280;6606;49.154;9.280;2023-05-02T13:21:42;100154.47;;;22.33;56.67
13080;BME280;6606;49.154;9.280;2023-05-02T13:24:24;100148.28;;;21.31;59.31
13080;BME280;6606;49.154;9.280;2023-05-02T13:27:07;100146.56;;;22.01;59.59
13080;BME280;6606;49.154;9.280;2023-05-02T13:29:49;100146.25;;;21.44;59.14
13080;BME280;6606;49.154;9.280;2023-05-02T13:32:31;100138.44;;;21.41;61.79
13080;BME280;6606;49.154;9.280;2023-05-02T13:35:13;100137.19;;;21.03;63.62
13080;BME280;6606;49.154;9.280;2023-05-02T13:37:55;100144.44;;;20.82;68.30
13080;BME280;6606;49.154;9.280;2023-05-02T13:40:37;100139.78;;;20.52;69.89
13080;BME280;6606;49.154;9.280;2023-05-02T13:43:20;100140.28;;;20.25;68.57
13080;BME280;6606;49.154;9.280;2023-05-02T13:46:01;100137.75;;;20.44;75.49
13080;BME280;6606;49.154;9.280;2023-05-02T13:48:43;100144.97;;;20.11;80.30
13080;BME280;6606;49.154;9.280;2023-05-02T13:51:43;100142.03;;;20.14;82.58
13080;BME280;6606;49.154;9.280;2023-05-02T13:54:25;100149.94;;;20.16;76.10
13080;BME280;6606;49.154;9.280;2023-05-02T13:57:07;100146.47;;;19.82;71.22
13080;BME280;6606;49.154;9.280;2023-05-02T13:59:53;100141.06;;;20.04;73.72
13080;BME280;6606;49.154;9.280;2023-05-02T14:02:35;100138.53;;;19.91;72.96
13080;BME280;6606;49.154;9.280;2023-05-02T14:05:20;100154.53;;;19.37;69.83
13080;BME280;6606;49.154;9.280;2023-05-02T14:08:06;100134.69;;;20.05;73.20
13080;BME280;6606;49.154;9.280;2023-05-02T14:10:53;100138.13;;;20.07;69.09
13080;BME280;6606;49.154;9.280;2023-05-02T14:13:35;100130.94;;;20.29;65.75
13080;BME280;6606;49.154;9.280;2023-05-02T14:16:20;100136.41;;;19.95;69.70
13080;BME280;6606;49.154;9.280;2023-05-02T14:19:02;100138.59;;;20.12;67.81
13080;BME280;6606;49.154;9.280;2023-05-02T14:21:46;100138.38;;;20.04;66.39
13080;BME280;6606;49.154;9.280;2023-05-02T14:24:28;100146.28;;;20.17;68.52
13080;BME280;6606;49.154;9.280;2023-05-02T14:27:12;100147.44;;;19.58;68.98
13080;BME280;6606;49.154;9.280;2023-05-02T14:30:03;100138.19;;;19.85;69.22
13080;BME280;6606;49.154;9.280;2023-05-02T14:32:49;100133.00;;;20.36;67.49
13080;BME280;6606;49.154;9.280;2023-05-02T14:35:31;100134.47;;;20.73;64.20
13080;BME280;6606;49.154;9.280;2023-05-02T14:38:13;100134.00;;;21.40;59.12
13080;BME280;6606;49.154;9.280;2023-05-02T14:40:55;100141.03;;;21.32;61.71